createdAt,value
2023-11-17T00:01:58.373Z,1.38
2023-11-17T00:04:25.541Z,1.25
2023-11-17T00:06:52.855Z,1.38
2023-11-17T00:09:19.884Z,1.02
2023-11-17T00:11:47.053Z,1.20
2023-11-17T00:14:14.126Z,0.93
2023-11-17T00:16:41.314Z,0.77
2023-11-17T00:19:09.023Z,1.63
2023-11-17T00:21:36.347Z,1.80
2023-11-17T00:24:07.410Z,1.30
2023-11-17T00:26:34.871Z,0.95
2023-11-17T00:29:02.884Z,1.40
2023-11-17T00:31:30.840Z,1.02
2023-11-17T00:33:59.198Z,1.33
2023-11-17T00:36:26.535Z,1.58
2023-11-17T00:38:53.724Z,2.00
2023-11-17T00:41:28.010Z,1.30
2023-11-17T00:43:59.004Z,1.30
2023-11-17T00:46:26.499Z,1.10
2023-11-17T00:48:53.682Z,1.10
2023-11-17T00:51:21.165Z,1.30
2023-11-17T00:53:48.232Z,1.30
2023-11-17T00:56:15.448Z,1.17
2023-11-17T00:58:42.641Z,1.27
2023-11-17T01:01:10.701Z,1.40
2023-11-17T01:03:38.057Z,1.20
2023-11-17T01:06:05.379Z,1.58
2023-11-17T01:08:33.080Z,0.98
2023-11-17T01:11:00.272Z,1.75
2023-11-17T01:13:27.689Z,1.85
2023-11-17T01:15:54.810Z,1.15
2023-11-17T01:18:22.066Z,1.10
2023-11-17T01:20:49.227Z,1.35
2023-11-17T01:23:16.262Z,1.02
2023-11-17T01:25:43.287Z,1.17
2023-11-17T01:28:10.508Z,1.30
2023-11-17T01:30:37.765Z,1.50
2023-11-17T01:33:05.326Z,1.10
2023-11-17T01:35:32.684Z,1.33
2023-11-17T01:37:59.722Z,1.30
2023-11-17T01:40:28.644Z,1.00
2023-11-17T01:43:07.066Z,0.88
2023-11-17T01:45:35.200Z,1.27
2023-11-17T01:48:02.985Z,0.93
2023-11-17T01:50:30.787Z,0.82
2023-11-17T01:52:58.309Z,1.13
2023-11-17T01:55:25.825Z,1.10
2023-11-17T01:57:54.193Z,1.55
2023-11-17T02:00:21.332Z,1.25
2023-11-17T02:02:51.228Z,1.48
2023-11-17T02:05:25.901Z,1.10
2023-11-17T02:08:42.268Z,1.10
2023-11-17T02:11:25.793Z,1.05
2023-11-17T02:14:06.818Z,1.27
2023-11-17T02:16:37.475Z,1.20
2023-11-17T02:19:16.637Z,1.63
2023-11-17T02:21:46.016Z,1.02
2023-11-17T02:24:15.180Z,1.20
2023-11-17T02:26:50.757Z,1.33
2023-11-17T02:29:29.772Z,1.17
2023-11-17T02:32:00.062Z,1.20
2023-11-17T02:34:27.942Z,1.00
2023-11-17T02:36:55.637Z,1.33
2023-11-17T02:39:37.721Z,1.73
2023-11-17T02:42:15.098Z,1.40
2023-11-17T02:44:42.215Z,1.27
2023-11-17T02:47:21.203Z,1.30
2023-11-17T02:49:54.530Z,1.20
2023-11-17T02:52:27.799Z,1.20
2023-11-17T02:54:56.964Z,0.90
2023-11-17T02:57:26.848Z,1.00
2023-11-17T02:59:54.935Z,1.00
2023-11-17T03:02:23.196Z,1.02
2023-11-17T03:04:55.900Z,1.00
2023-11-17T03:07:23.285Z,0.95
2023-11-17T03:09:53.514Z,0.70
2023-11-17T03:12:21.296Z,0.82
2023-11-17T03:14:48.306Z,1.10
2023-11-17T03:17:15.388Z,1.20
2023-11-17T03:19:43.839Z,1.27
2023-11-17T03:22:14.989Z,1.35
2023-11-17T03:24:42.872Z,1.45
2023-11-17T03:27:09.942Z,1.23
2023-11-17T03:29:38.446Z,1.38
2023-11-17T03:32:08.858Z,1.50
2023-11-17T03:34:36.195Z,2.03
2023-11-17T03:37:05.214Z,1.63
2023-11-17T03:39:43.446Z,1.67
2023-11-17T03:42:17.487Z,2.08
2023-11-17T03:44:44.542Z,1.92
2023-11-17T03:47:13.641Z,2.15
2023-11-17T03:49:42.123Z,1.75
2023-11-17T03:52:09.202Z,1.77
2023-11-17T03:54:38.725Z,1.95
2023-11-17T03:57:07.761Z,2.53
2023-11-17T03:59:35.610Z,4.03
2023-11-17T04:02:02.920Z,2.50
2023-11-17T04:04:30.414Z,3.08
2023-11-17T04:06:58.749Z,2.78
2023-11-17T04:09:27.059Z,2.78
2023-11-17T04:11:55.097Z,2.40
2023-11-17T04:14:23.668Z,2.40
2023-11-17T04:16:51.717Z,2.58
2023-11-17T04:19:22.226Z,1.70
2023-11-17T04:21:50.819Z,1.30
2023-11-17T04:24:18.701Z,0.80
2023-11-17T04:26:47.813Z,1.17
2023-11-17T04:29:15.180Z,0.70
2023-11-17T04:31:43.449Z,0.73
2023-11-17T04:34:12.947Z,0.88
2023-11-17T04:36:40.378Z,1.52
2023-11-17T04:39:18.805Z,1.45
2023-11-17T04:41:48.339Z,1.20
2023-11-17T04:44:15.682Z,1.80
2023-11-17T04:46:42.951Z,1.42
2023-11-17T04:49:10.206Z,1.83
2023-11-17T04:51:37.244Z,1.77
2023-11-17T04:54:04.486Z,2.35
2023-11-17T04:56:31.613Z,4.60
2023-11-17T04:58:58.763Z,3.60
2023-11-17T05:01:25.909Z,2.97
2023-11-17T05:03:53.092Z,3.03
2023-11-17T05:06:24.856Z,2.35
2023-11-17T05:08:52.142Z,2.15
2023-11-17T05:11:19.278Z,1.10
2023-11-17T05:13:46.281Z,1.30
2023-11-17T05:16:15.539Z,1.25
2023-11-17T05:18:44.123Z,1.58
2023-11-17T05:21:14.119Z,1.23
2023-11-17T05:23:41.192Z,1.70
2023-11-17T05:26:09.961Z,1.42
2023-11-17T05:28:37.452Z,1.45
2023-11-17T05:31:04.920Z,1.17
2023-11-17T05:33:32.117Z,1.33
2023-11-17T05:35:59.192Z,1.20
2023-11-17T05:38:27.762Z,1.10
2023-11-17T05:40:54.977Z,1.77
2023-11-17T05:43:22.089Z,1.40
2023-11-17T05:45:51.716Z,1.60
2023-11-17T05:48:18.881Z,1.17
2023-11-17T05:50:46.209Z,1.23
2023-11-17T05:53:13.237Z,1.17
2023-11-17T05:55:40.760Z,1.23
2023-11-17T05:58:09.017Z,1.50
2023-11-17T06:00:36.109Z,1.38
2023-11-17T06:03:03.384Z,1.50
2023-11-17T06:05:31.025Z,1.45
2023-11-17T06:07:58.298Z,1.23
2023-11-17T06:10:25.370Z,1.50
2023-11-17T06:12:52.541Z,1.42
2023-11-17T06:15:28.575Z,1.67
2023-11-17T06:17:56.015Z,1.80
2023-11-17T06:20:24.459Z,1.52
2023-11-17T06:22:51.459Z,1.73
2023-11-17T06:25:18.532Z,1.88
2023-11-17T06:27:47.459Z,1.70
2023-11-17T06:30:15.675Z,1.52
2023-11-17T06:32:43.684Z,1.63
2023-11-17T06:35:10.763Z,1.15
2023-11-17T06:37:38.925Z,1.00
2023-11-17T06:40:11.349Z,1.40
2023-11-17T06:42:41.245Z,1.10
2023-11-17T06:45:08.867Z,1.33
2023-11-17T06:47:36.244Z,1.20
2023-11-17T06:50:05.934Z,1.17
2023-11-17T06:52:33.163Z,1.13
2023-11-17T06:55:00.468Z,1.35
2023-11-17T06:57:29.215Z,1.02
2023-11-17T06:59:56.243Z,0.90
2023-11-17T07:02:23.443Z,1.50
2023-11-17T07:04:50.576Z,1.55
2023-11-17T07:07:17.802Z,1.27
2023-11-17T07:09:44.914Z,1.20
2023-11-17T07:12:12.037Z,1.13
2023-11-17T07:14:39.492Z,0.98
2023-11-17T07:17:06.695Z,1.38
2023-11-17T07:19:37.083Z,1.23
2023-11-17T07:22:04.394Z,1.50
2023-11-17T07:24:32.155Z,1.95
2023-11-17T07:27:00.298Z,1.30
2023-11-17T07:29:27.831Z,1.20
2023-11-17T07:31:55.747Z,1.30
2023-11-17T07:34:23.253Z,1.15
2023-11-17T07:36:50.493Z,1.23
2023-11-17T07:39:20.983Z,1.08
2023-11-17T07:41:48.610Z,1.27
2023-11-17T07:44:23.008Z,1.20
2023-11-17T07:46:50.303Z,0.90
2023-11-17T07:49:21.046Z,0.88
2023-11-17T07:51:49.573Z,1.45
2023-11-17T07:54:18.471Z,1.40
2023-11-17T07:56:52.278Z,1.08
2023-11-17T07:59:20.744Z,1.40
2023-11-17T08:01:48.501Z,1.20
2023-11-17T08:04:18.499Z,1.73
2023-11-17T08:06:46.303Z,2.50
2023-11-17T08:09:14.155Z,1.52
2023-11-17T08:11:41.743Z,1.58
2023-11-17T08:14:10.299Z,1.45
2023-11-17T08:16:38.272Z,1.40
2023-11-17T08:19:18.311Z,1.27
2023-11-17T08:21:53.209Z,1.70
2023-11-17T08:24:22.215Z,1.77
2023-11-17T08:26:52.228Z,1.52
2023-11-17T08:29:22.797Z,1.50
2023-11-17T08:31:51.439Z,2.28
2023-11-17T08:34:18.976Z,2.00
2023-11-17T08:36:46.202Z,1.98
2023-11-17T08:39:27.087Z,1.60
2023-11-17T08:41:56.584Z,1.88
2023-11-17T08:44:24.899Z,2.20
2023-11-17T08:46:53.055Z,1.90
2023-11-17T08:49:22.428Z,1.58
2023-11-17T08:51:49.777Z,1.83
2023-11-17T08:54:20.133Z,1.63
2023-11-17T08:56:50.286Z,2.05
2023-11-17T08:59:17.902Z,1.40
2023-11-17T09:01:45.783Z,1.80
2023-11-17T09:04:13.715Z,1.65
2023-11-17T09:06:41.037Z,1.98
2023-11-17T09:09:24.130Z,1.83
2023-11-17T09:12:00.529Z,1.17
2023-11-17T09:14:32.160Z,1.27
2023-11-17T09:17:03.137Z,1.30
2023-11-17T09:19:30.660Z,0.82
2023-11-17T09:21:57.778Z,1.60
2023-11-17T09:24:24.936Z,1.00
2023-11-17T09:26:51.978Z,1.38
2023-11-17T09:29:20.307Z,1.10
2023-11-17T09:31:49.138Z,1.90
2023-11-17T09:34:18.298Z,1.10
2023-11-17T09:36:45.673Z,1.40
2023-11-17T09:39:12.919Z,0.77
2023-11-17T09:41:42.120Z,1.00
2023-11-17T09:44:10.110Z,1.30
2023-11-17T10:18:49.769Z,1.17
2023-11-17T10:21:20.485Z,1.50
2023-11-17T10:23:52.373Z,1.08
2023-11-17T10:26:21.374Z,0.90
2023-11-17T10:28:49.121Z,3.33
2023-11-17T10:31:18.456Z,1.13
2023-11-17T10:33:47.025Z,0.73
2023-11-17T10:36:19.772Z,1.13
2023-11-17T10:38:48.906Z,0.88
2023-11-17T10:41:21.946Z,0.60
2023-11-17T10:43:59.701Z,0.85
2023-11-17T10:46:32.393Z,0.70
2023-11-17T10:49:06.210Z,0.55
2023-11-17T10:51:36.007Z,0.93
2023-11-17T10:54:10.704Z,0.70
2023-11-17T10:56:38.594Z,0.75
2023-11-17T10:59:10.118Z,1.10
2023-11-17T11:01:38.809Z,0.60
2023-11-17T11:04:17.202Z,1.05
2023-11-17T11:06:44.931Z,0.88
2023-11-17T11:09:19.427Z,0.80
2023-11-17T11:11:52.138Z,0.68
2023-11-17T11:14:21.989Z,1.33
2023-11-17T11:16:50.474Z,0.88
2023-11-17T11:19:24.420Z,0.88
2023-11-17T11:22:02.914Z,0.70
2023-11-17T11:24:37.988Z,0.90
2023-11-17T11:27:07.626Z,0.68
2023-11-17T11:29:40.316Z,0.68
2023-11-17T11:32:09.854Z,0.77
2023-11-17T11:34:37.489Z,1.00
2023-11-17T11:37:05.555Z,0.80
2023-11-17T11:39:32.959Z,1.63
2023-11-17T11:42:01.927Z,0.95
2023-11-17T11:44:29.230Z,0.85
2023-11-17T11:46:59.289Z,0.82
2023-11-17T11:49:27.198Z,1.00
2023-11-17T11:52:11.183Z,0.68
2023-11-17T11:54:38.981Z,0.68
2023-11-17T11:57:32.619Z,0.75
2023-11-17T12:00:15.721Z,1.02
2023-11-17T12:02:59.701Z,0.65
2023-11-17T12:05:30.258Z,0.93
2023-11-17T12:07:58.667Z,1.08
2023-11-17T12:10:26.670Z,0.63
2023-11-17T12:12:57.115Z,1.10
2023-11-17T12:15:24.853Z,1.42
2023-11-17T12:18:07.311Z,1.05
2023-11-17T12:20:40.279Z,0.80
2023-11-17T12:23:08.012Z,0.77
2023-11-17T12:25:36.243Z,1.00
2023-11-17T12:28:03.856Z,1.02
2023-11-17T12:30:32.598Z,0.80
2023-11-17T12:33:00.599Z,1.17
2023-11-17T12:35:28.849Z,0.80
2023-11-17T12:37:56.642Z,0.98
2023-11-17T12:40:24.260Z,0.93
2023-11-17T12:42:52.167Z,0.73
2023-11-17T12:45:21.293Z,0.85
2023-11-17T12:47:48.901Z,0.93
2023-11-17T12:50:16.082Z,0.80
2023-11-17T12:55:30.431Z,0.98
2023-11-17T12:57:57.574Z,1.17
2023-11-17T13:00:29.435Z,0.88
2023-11-17T13:02:56.974Z,0.90
2023-11-17T13:05:26.973Z,0.85
2023-11-17T13:07:55.369Z,1.00
2023-11-17T13:10:22.820Z,1.25
2023-11-17T13:12:50.278Z,0.80
2023-11-17T13:15:17.716Z,0.90
2023-11-17T13:17:45.552Z,0.80
2023-11-17T13:20:21.769Z,0.70
2023-11-17T13:22:51.196Z,1.05
2023-11-17T13:25:18.744Z,0.63
2023-11-17T13:27:46.065Z,0.90
2023-11-17T13:30:15.610Z,0.77
2023-11-17T13:32:54.608Z,0.82
2023-11-17T13:35:24.283Z,0.80
2023-11-17T13:37:52.551Z,1.05
2023-11-17T13:40:38.586Z,0.70
2023-11-17T13:43:13.065Z,0.68
2023-11-17T13:45:43.808Z,1.25
2023-11-17T13:48:13.688Z,0.98
2023-11-17T13:50:42.617Z,0.82
2023-11-17T13:53:12.601Z,0.57
2023-11-17T13:55:40.924Z,0.85
2023-11-17T13:58:08.374Z,1.02
2023-11-17T14:00:36.726Z,0.80
2023-11-17T14:03:05.159Z,1.23
2023-11-17T14:05:32.400Z,1.10
2023-11-17T14:07:59.397Z,1.50
2023-11-17T14:10:26.553Z,0.88
2023-11-17T14:12:53.622Z,0.88
2023-11-17T14:15:20.998Z,1.30
2023-11-17T14:17:49.330Z,0.70
2023-11-17T14:20:18.891Z,1.45
2023-11-17T14:22:46.439Z,1.23
2023-11-17T14:25:13.738Z,1.67
2023-11-17T14:27:41.380Z,1.73
2023-11-17T14:30:09.654Z,1.67
2023-11-17T14:32:37.690Z,2.60
2023-11-17T14:35:05.955Z,1.90
2023-11-17T14:37:32.991Z,2.03
2023-11-17T14:40:00.461Z,2.10
2023-11-17T14:42:27.651Z,1.98
2023-11-17T14:44:54.827Z,2.33
2023-11-17T14:47:23.825Z,2.47
2023-11-17T14:49:51.751Z,2.17
2023-11-17T14:52:18.974Z,2.72
2023-11-17T14:54:47.433Z,2.25
2023-11-17T14:57:15.860Z,2.30
2023-11-17T14:59:43.297Z,2.08
2023-11-17T15:02:10.657Z,2.83
2023-11-17T15:04:37.970Z,2.22
2023-11-17T15:07:05.377Z,2.22
2023-11-17T15:09:35.235Z,2.78
2023-11-17T15:12:02.384Z,2.45
2023-11-17T15:14:29.488Z,2.28
2023-11-17T15:16:57.929Z,2.08
2023-11-17T15:19:27.774Z,2.05
2023-11-17T15:21:55.258Z,2.05
2023-11-17T15:24:23.722Z,2.22
2023-11-17T15:26:53.366Z,2.38
2023-11-17T15:29:23.437Z,3.13
2023-11-17T15:31:53.203Z,3.22
2023-11-17T15:34:22.701Z,2.50
2023-11-17T15:36:52.031Z,2.50
2023-11-17T15:39:19.232Z,2.78
2023-11-17T15:41:46.548Z,2.42
2023-11-17T15:44:19.627Z,2.47
2023-11-17T15:46:47.750Z,3.10
2023-11-17T15:49:17.056Z,2.83
2023-11-17T15:51:44.991Z,2.50
2023-11-17T15:54:11.989Z,2.60
2023-11-17T15:56:41.659Z,3.33
2023-11-17T15:59:10.843Z,3.25
2023-11-17T16:01:40.415Z,2.40
2023-11-17T16:04:09.076Z,2.90
2023-11-17T16:06:38.874Z,3.00
2023-11-17T16:09:11.767Z,2.75
2023-11-17T16:11:41.743Z,2.72
2023-11-17T16:14:14.330Z,3.10
2023-11-17T16:16:43.219Z,3.00
2023-11-17T16:19:11.062Z,2.78
2023-11-17T16:21:38.353Z,3.60
2023-11-17T16:24:06.603Z,3.67
2023-11-17T16:26:34.719Z,3.22
2023-11-17T16:29:02.381Z,3.78
2023-11-17T16:31:29.780Z,2.88
2023-11-17T16:33:56.904Z,2.97
2023-11-17T16:36:25.580Z,3.63
2023-11-17T16:38:53.148Z,3.10
2023-11-17T16:41:21.917Z,2.97
2023-11-17T16:43:52.061Z,4.20
2023-11-17T16:46:22.063Z,5.07
2023-11-17T16:48:51.818Z,5.97
2023-11-17T16:51:19.262Z,6.03
2023-11-17T16:53:47.652Z,5.97
2023-11-17T16:56:16.055Z,6.80
2023-11-17T16:58:43.566Z,6.30
2023-11-17T17:01:11.234Z,5.35
2023-11-17T17:03:38.905Z,3.90
2023-11-17T17:06:06.308Z,3.83
2023-11-17T17:08:36.398Z,2.58
2023-11-17T17:11:06.204Z,2.78
2023-11-17T17:13:35.326Z,2.55
2023-11-17T17:16:02.858Z,3.35
2023-11-17T17:18:31.021Z,2.92
2023-11-17T17:20:58.730Z,3.42
2023-11-17T17:23:26.809Z,3.13
2023-11-17T17:25:56.608Z,3.63
2023-11-17T17:28:24.021Z,2.85
2023-11-17T17:30:51.699Z,4.45
2023-11-17T17:33:18.892Z,4.63
2023-11-17T17:35:46.916Z,3.90
2023-11-17T17:38:14.928Z,4.35
2023-11-17T17:40:43.917Z,3.50
2023-11-17T17:43:13.280Z,4.43
2023-11-17T17:45:41.510Z,3.10
2023-11-17T17:48:09.537Z,2.95
2023-11-17T17:50:38.178Z,4.05
2023-11-17T17:53:05.551Z,3.10
2023-11-17T17:55:32.871Z,3.45
2023-11-17T17:58:00.003Z,3.13
2023-11-17T18:00:29.310Z,2.30
2023-11-17T18:03:01.445Z,2.65
2023-11-17T18:05:31.277Z,2.45
2023-11-17T18:07:58.973Z,2.42
2023-11-17T18:10:27.000Z,1.98
2023-11-17T18:12:54.905Z,2.20
2023-11-17T18:15:23.379Z,2.10
2023-11-17T18:17:53.512Z,2.08
2023-11-17T18:20:24.679Z,1.92
2023-11-17T18:22:53.603Z,2.25
2023-11-17T18:25:22.520Z,2.35
2023-11-17T18:27:53.346Z,2.00
2023-11-17T18:30:22.454Z,2.08
2023-11-17T18:32:50.743Z,1.60
2023-11-17T18:35:23.179Z,1.48
2023-11-17T18:37:51.421Z,2.25
2023-11-17T18:40:23.811Z,2.05
2023-11-17T18:42:54.519Z,1.88
2023-11-17T18:45:22.438Z,1.90
2023-11-17T18:47:50.309Z,2.50
2023-11-17T18:50:19.704Z,1.65
2023-11-17T18:52:48.594Z,2.50
2023-11-17T18:55:18.295Z,1.98
2023-11-17T18:57:46.300Z,2.58
2023-11-17T19:00:22.175Z,2.13
2023-11-17T19:05:20.233Z,2.20
2023-11-17T19:07:53.425Z,1.88
2023-11-17T19:10:22.039Z,2.03
2023-11-17T19:12:51.053Z,2.22
2023-11-17T19:15:20.977Z,1.85
2023-11-17T19:17:48.707Z,2.00
2023-11-17T19:20:16.836Z,2.08
2023-11-17T19:22:45.497Z,2.10
2023-11-17T19:25:13.072Z,2.03
2023-11-17T19:27:41.478Z,2.33
2023-11-17T19:30:16.353Z,2.05
2023-11-17T19:32:51.183Z,2.23
2023-11-17T19:35:23.589Z,2.20
2023-11-17T19:37:52.050Z,2.30
2023-11-17T19:40:19.377Z,2.08
2023-11-17T19:42:46.536Z,2.65
2023-11-17T19:45:18.311Z,2.25
2023-11-17T19:47:46.327Z,1.95
2023-11-17T19:50:16.096Z,1.90
2023-11-17T19:52:48.396Z,1.52
2023-11-17T19:55:16.450Z,1.95
2023-11-17T19:57:48.807Z,2.30
2023-11-17T20:00:24.654Z,1.98
2023-11-17T20:02:57.073Z,1.98
2023-11-17T20:05:24.809Z,1.95
2023-11-17T20:07:53.651Z,2.00
2023-11-17T20:10:21.831Z,2.08
2023-11-17T20:12:49.148Z,2.00
2023-11-17T20:15:16.405Z,1.90
2023-11-17T20:17:56.830Z,2.00
2023-11-17T20:20:29.143Z,1.58
2023-11-17T20:22:57.891Z,1.50
2023-11-17T20:25:26.594Z,1.52
2023-11-17T20:27:56.583Z,2.20
2023-11-17T20:30:26.650Z,1.83
2023-11-17T20:32:55.769Z,1.83
2023-11-17T20:35:25.284Z,1.63
2023-11-17T20:37:53.970Z,1.60
2023-11-17T20:40:21.645Z,2.08
2023-11-17T20:42:52.208Z,1.85
2023-11-17T20:45:22.089Z,1.85
2023-11-17T20:47:49.592Z,2.20
2023-11-17T20:50:20.826Z,2.38
2023-11-17T20:52:53.526Z,3.17
2023-11-17T20:55:22.305Z,2.65
2023-11-17T20:57:51.117Z,2.92
2023-11-17T21:00:22.401Z,2.63
2023-11-17T21:02:52.965Z,3.03
2023-11-17T21:05:21.430Z,2.78
2023-11-17T21:07:49.557Z,2.78
2023-11-17T21:10:23.483Z,2.55
2023-11-17T21:12:53.438Z,2.83
2023-11-17T21:15:22.463Z,2.63
2023-11-17T21:17:52.639Z,2.67
2023-11-17T21:20:21.851Z,2.47
2023-11-17T21:22:49.390Z,2.83
2023-11-17T21:25:19.491Z,2.70
2023-11-17T21:27:49.255Z,2.75
2023-11-17T21:30:17.114Z,2.83
2023-11-17T21:32:52.475Z,2.75
2023-11-17T21:35:20.696Z,2.22
2023-11-17T21:37:56.841Z,3.05
2023-11-17T21:40:24.751Z,2.60
2023-11-17T21:42:53.497Z,2.28
2023-11-17T21:45:24.847Z,2.45
2023-11-17T21:47:53.672Z,2.60
2023-11-17T21:50:22.599Z,2.67
2023-11-17T21:52:50.868Z,3.05
2023-11-17T21:55:19.355Z,2.92
2023-11-17T21:57:47.809Z,2.88
2023-11-17T22:00:18.600Z,2.42
2023-11-17T22:02:47.957Z,2.83
2023-11-17T22:05:17.198Z,3.00
2023-11-17T22:07:45.361Z,3.03
2023-11-17T22:10:13.352Z,2.25
2023-11-17T22:12:41.449Z,2.80
2023-11-17T22:15:10.268Z,2.40
2023-11-17T22:17:37.936Z,3.08
2023-11-17T22:20:07.107Z,2.80
2023-11-17T22:22:34.908Z,2.80
2023-11-17T22:25:02.791Z,3.33
2023-11-17T22:27:30.048Z,3.13
2023-11-17T22:29:57.778Z,3.95
2023-11-17T22:32:25.160Z,3.55
2023-11-17T22:34:52.403Z,4.15
2023-11-17T22:37:19.852Z,3.90
2023-11-17T22:39:47.189Z,4.32
2023-11-17T22:42:14.870Z,5.50
2023-11-17T22:44:42.083Z,6.00
2023-11-17T22:47:09.314Z,5.53
2023-11-17T22:49:39.782Z,5.97
2023-11-17T22:52:06.918Z,6.70
2023-11-17T22:54:34.537Z,6.40
2023-11-17T22:57:01.693Z,6.80
2023-11-17T22:59:28.810Z,7.10
2023-11-17T23:01:56.021Z,7.30
2023-11-17T23:04:23.149Z,8.20
2023-11-17T23:06:50.272Z,9.40
2023-11-17T23:09:17.353Z,9.15
2023-11-17T23:11:45.381Z,7.97
2023-11-17T23:14:12.630Z,9.45
2023-11-17T23:16:40.087Z,8.45
2023-11-17T23:19:17.892Z,8.48
2023-11-17T23:21:47.768Z,7.90
2023-11-17T23:24:14.985Z,8.57
2023-11-17T23:26:41.988Z,8.55
2023-11-17T23:29:09.901Z,8.10
2023-11-17T23:31:37.047Z,8.98
2023-11-17T23:34:04.093Z,9.18
2023-11-17T23:36:31.167Z,8.60
2023-11-17T23:38:59.121Z,7.28
2023-11-17T23:41:26.730Z,8.32
2023-11-17T23:43:55.395Z,7.07
2023-11-17T23:46:24.407Z,7.72
2023-11-17T23:48:51.836Z,6.47
2023-11-17T23:51:18.881Z,5.88
2023-11-17T23:53:45.939Z,5.05
2023-11-17T23:56:13.871Z,5.28
2023-11-17T23:58:41.111Z,5.00
